Time;durP1;ratioP1;P1;durP2;ratioP2;P2;SDS_P1;SDS_P2;PMS_P1;PMS_P2;Temp;Humidity;BMP_temperature;BMP_pressure;BME280_temperature;BME280_humidity;BME280_pressure;Samples;Min_cycle;Max_cycle;Signal;HPM_P1;HPM_P2
2022/12/20 00:01:39;;;;;;;9.90;7.47;;;;;;;;;;5108101;28;20200;-85
2022/12/20 00:04:06;;;;;;;9.90;6.47;;;;;;;;;;5108139;28;20196;-85
2022/12/20 00:06:34;;;;;;;8.53;6.47;;;;;;;;;;5112129;28;20206;-85
2022/12/20 00:09:02;;;;;;;12.90;9.97;;;;;;;;;;5100967;28;20204;-84
2022/12/20 00:11:29;;;;;;;12.60;8.47;;;;;;;;;;5101440;28;20211;-85
2022/12/20 00:13:56;;;;;;;11.27;7.13;;;;;;;;;;5112274;28;20234;-85
2022/12/20 00:16:25;;;;;;;15.53;8.37;;;;;;;;;;5112624;28;20879;-85
2022/12/20 00:18:55;;;;;;;10.90;8.23;;;;;;;;;;5098036;28;20208;-85
2022/12/20 00:21:22;;;;;;;10.57;7.80;;;;;;;;;;5112442;28;20705;-85
2022/12/20 00:23:49;;;;;;;10.40;7.53;;;;;;;;;;5111056;28;20199;-85
2022/12/20 00:26:18;;;;;;;17.57;11.60;;;;;;;;;;5111035;28;20207;-84
2022/12/20 00:28:45;;;;;;;19.83;12.10;;;;;;;;;;5112235;28;20223;-85
2022/12/20 00:31:15;;;;;;;6.20;5.60;;;;;;;;;;5112314;28;20218;-85
2022/12/20 00:33:45;;;;;;;9.17;5.07;;;;;;;;;;5100165;28;20457;-85
2022/12/20 00:36:14;;;;;;;9.13;5.23;;;;;;;;;;5105216;28;20484;-86
2022/12/20 00:38:42;;;;;;;11.47;7.60;;;;;;;;;;5111955;28;20199;-86
2022/12/20 00:41:11;;;;;;;9.33;6.90;;;;;;;;;;5110840;28;20819;-85
2022/12/20 00:43:39;;;;;;;7.90;5.73;;;;;;;;;;5111888;28;20215;-86
2022/12/20 00:46:08;;;;;;;14.73;10.43;;;;;;;;;;5111938;28;20662;-85
2022/12/20 00:48:35;;;;;;;23.40;8.97;;;;;;;;;;5112106;28;20651;-86
2022/12/20 00:51:04;;;;;;;28.23;17.07;;;;;;;;;;5111793;28;20207;-85
2022/12/20 00:53:33;;;;;;;19.60;13.17;;;;;;;;;;5111889;28;20210;-84
2022/12/20 00:56:00;;;;;;;13.10;9.80;;;;;;;;;;5110396;28;20199;-85
2022/12/20 00:58:28;;;;;;;11.23;8.53;;;;;;;;;;5111796;28;20272;-85
2022/12/20 01:00:55;;;;;;;12.13;7.73;;;;;;;;;;5093672;28;20214;-85
2022/12/20 01:03:22;;;;;;;9.37;7.60;;;;;;;;;;5103760;28;20450;-85
2022/12/20 01:05:53;;;;;;;10.23;7.73;;;;;;;;;;5105690;28;20620;-85
2022/12/20 01:08:20;;;;;;;9.73;7.17;;;;;;;;;;5111293;28;20310;-86
2022/12/20 01:10:59;;;;;;;8.97;6.83;;;;;;;;;;5096344;28;20262;-85
2022/12/20 01:13:25;;;;;;;8.57;6.23;;;;;;;;;;5111552;28;20222;-85
2022/12/20 01:15:54;;;;;;;6.83;5.53;;;;;;;;;;5097925;28;20207;-85
2022/12/20 01:18:21;;;;;;;7.03;5.27;;;;;;;;;;5110710;28;20206;-84
2022/12/20 01:20:48;;;;;;;6.60;4.70;;;;;;;;;;5105070;28;20442;-86
2022/12/20 01:23:16;;;;;;;6.03;5.17;;;;;;;;;;5106017;28;20573;-85
2022/12/20 01:25:43;;;;;;;9.67;5.50;;;;;;;;;;5111245;28;20201;-85
2022/12/20 01:28:12;;;;;;;9.93;6.13;;;;;;;;;;5110083;28;20628;-85
2022/12/20 01:30:41;;;;;;;12.30;7.40;;;;;;;;;;5111621;28;20568;-86
2022/12/20 01:33:08;;;;;;;13.07;10.13;;;;;;;;;;5097987;28;20226;-86
2022/12/20 01:35:35;;;;;;;19.57;13.27;;;;;;;;;;5109898;28;20662;-86
2022/12/20 01:38:01;;;;;;;9.67;7.67;;;;;;;;;;5110212;28;20261;-86
2022/12/20 01:40:29;;;;;;;13.90;8.43;;;;;;;;;;5097908;28;20555;-86
2022/12/20 01:42:55;;;;;;;12.27;10.23;;;;;;;;;;5111415;28;20623;-86
2022/12/20 01:45:28;;;;;;;15.87;11.83;;;;;;;;;;5111338;28;20441;-86
2022/12/20 01:47:55;;;;;;;26.70;20.57;;;;;;;;;;5110931;28;20222;-86
2022/12/20 01:50:23;;;;;;;22.00;15.27;;;;;;;;;;5110462;28;20207;-86
2022/12/20 01:52:50;;;;;;;15.77;12.10;;;;;;;;;;5109674;28;20195;-87
2022/12/20 01:55:20;;;;;;;12.10;8.07;;;;;;;;;;5111403;28;20864;-85
2022/12/20 01:57:50;;;;;;;9.83;5.50;;;;;;;;;;5092864;28;20226;-86
2022/12/20 02:00:18;;;;;;;6.13;5.43;;;;;;;;;;5110663;28;20237;-85
2022/12/20 02:02:48;;;;;;;12.57;6.07;;;;;;;;;;5109700;28;20288;-86
2022/12/20 02:05:17;;;;;;;14.20;10.53;;;;;;;;;;5100741;28;20261;-86
2022/12/20 02:07:47;;;;;;;15.50;7.23;;;;;;;;;;5103046;28;20227;-85
2022/12/20 02:10:14;;;;;;;7.13;5.83;;;;;;;;;;5099560;28;20208;-86
2022/12/20 02:12:42;;;;;;;7.07;5.57;;;;;;;;;;5109603;28;20685;-86
2022/12/20 02:15:28;;;;;;;8.00;5.10;;;;;;;;;;5110558;28;20740;-86
2022/12/20 02:18:02;;;;;;;11.03;7.70;;;;;;;;;;5114552;28;20203;-86
2022/12/20 02:21:04;;;;;;;14.07;8.53;;;;;;;;;;5105318;28;20255;-86
2022/12/20 02:24:01;;;;;;;9.23;7.97;;;;;;;;;;5035822;28;20289;-85
2022/12/20 02:27:04;;;;;;;8.97;6.33;;;;;;;;;;5094213;28;20208;-84
2022/12/20 02:29:35;;;;;;;9.27;6.90;;;;;;;;;;5081326;28;20544;-85
2022/12/20 02:32:08;;;;;;;10.93;7.13;;;;;;;;;;5109111;28;20709;-86
2022/12/20 02:34:37;;;;;;;11.87;6.23;;;;;;;;;;5103001;28;20211;-85
2022/12/20 02:37:05;;;;;;;7.63;6.70;;;;;;;;;;5113570;28;20199;-84
2022/12/20 02:39:32;;;;;;;9.60;6.70;;;;;;;;;;5113137;28;20207;-86
2022/12/20 02:42:02;;;;;;;6.60;5.33;;;;;;;;;;5093001;28;20645;-86
2022/12/20 02:47:20;;;;;;;8.63;6.03;;;;;;;;;;5114745;28;20679;-85
2022/12/20 02:49:47;;;;;;;6.13;4.63;;;;;;;;;;5114062;28;20208;-85
2022/12/20 02:52:15;;;;;;;9.30;6.33;;;;;;;;;;5113198;28;20707;-86
2022/12/20 02:54:42;;;;;;;8.53;6.40;;;;;;;;;;5113273;28;20200;-86
2022/12/20 02:57:14;;;;;;;8.87;6.67;;;;;;;;;;5103283;28;21895;-86
2022/12/20 02:59:45;;;;;;;11.33;6.90;;;;;;;;;;5108098;28;20200;-86
2022/12/20 03:02:12;;;;;;;11.47;6.33;;;;;;;;;;5094409;28;20505;-86
2022/12/20 03:04:41;;;;;;;9.87;5.87;;;;;;;;;;5100636;28;20231;-86
2022/12/20 03:07:11;;;;;;;11.57;6.77;;;;;;;;;;5111476;28;20697;-87
2022/12/20 03:09:39;;;;;;;12.33;6.90;;;;;;;;;;5112460;28;20298;-85
2022/12/20 03:12:07;;;;;;;12.73;7.87;;;;;;;;;;5113487;28;20207;-85
2022/12/20 03:14:34;;;;;;;11.93;7.23;;;;;;;;;;5113716;28;20238;-85
2022/12/20 03:17:01;;;;;;;11.47;7.33;;;;;;;;;;5111009;28;20632;-85
2022/12/20 03:19:28;;;;;;;8.77;6.47;;;;;;;;;;5113883;28;20211;-87
2022/12/20 03:21:56;;;;;;;11.00;6.50;;;;;;;;;;5106786;28;20220;-87
2022/12/20 03:24:23;;;;;;;9.07;6.37;;;;;;;;;;5115087;27;20203;-87
2022/12/20 03:26:51;;;;;;;12.47;7.33;;;;;;;;;;5113963;27;20204;-87
2022/12/20 03:29:18;;;;;;;8.20;5.57;;;;;;;;;;5113558;28;20314;-87
2022/12/20 03:31:44;;;;;;;9.47;7.20;;;;;;;;;;5099174;28;20631;-87
2022/12/20 03:34:11;;;;;;;8.17;6.30;;;;;;;;;;5112929;28;20208;-90
2022/12/20 03:36:38;;;;;;;8.13;5.63;;;;;;;;;;5097632;27;20200;-86
2022/12/20 03:39:07;;;;;;;7.63;5.50;;;;;;;;;;5123021;27;20192;-86
2022/12/20 03:41:34;;;;;;;9.63;5.37;;;;;;;;;;5113390;27;20204;-86
2022/12/20 03:44:01;;;;;;;10.27;6.57;;;;;;;;;;5113295;28;20211;-87
2022/12/20 03:46:28;;;;;;;10.33;6.80;;;;;;;;;;5112866;28;20211;-86
2022/12/20 03:48:55;;;;;;;9.63;6.40;;;;;;;;;;5083564;28;20228;-85
2022/12/20 03:51:22;;;;;;;10.43;6.57;;;;;;;;;;5087599;28;20219;-85
2022/12/20 03:53:49;;;;;;;10.23;7.07;;;;;;;;;;5104646;28;20643;-86
2022/12/20 03:56:18;;;;;;;10.57;7.73;;;;;;;;;;5095109;28;20253;-85
2022/12/20 03:58:45;;;;;;;13.03;7.90;;;;;;;;;;5104765;28;20211;-85
2022/12/20 04:01:19;;;;;;;14.33;8.07;;;;;;;;;;5111056;28;20585;-83
2022/12/20 04:03:46;;;;;;;12.43;6.67;;;;;;;;;;5108508;28;20199;-82
2022/12/20 04:06:13;;;;;;;8.90;6.77;;;;;;;;;;5112072;28;20199;-82
2022/12/20 04:08:40;;;;;;;11.87;8.07;;;;;;;;;;5108707;28;20220;-85
2022/12/20 04:11:16;;;;;;;11.60;7.23;;;;;;;;;;5111814;28;20207;-83
2022/12/20 04:13:45;;;;;;;11.33;6.90;;;;;;;;;;5111547;28;20767;-85
2022/12/20 04:16:13;;;;;;;10.27;6.27;;;;;;;;;;5107575;27;20744;-84
2022/12/20 04:18:40;;;;;;;10.97;7.67;;;;;;;;;;5106654;28;20203;-84
2022/12/20 04:21:07;;;;;;;9.80;6.63;;;;;;;;;;5112817;28;20226;-84
2022/12/20 04:23:34;;;;;;;9.03;6.10;;;;;;;;;;5112163;28;20231;-84
2022/12/20 04:26:01;;;;;;;12.53;7.40;;;;;;;;;;5110831;28;20268;-83
2022/12/20 04:28:29;;;;;;;14.70;7.33;;;;;;;;;;5106516;28;20248;-84
2022/12/20 04:30:58;;;;;;;13.73;6.50;;;;;;;;;;5111884;28;20726;-84
2022/12/20 04:33:25;;;;;;;10.57;6.87;;;;;;;;;;5112111;28;20647;-83
2022/12/20 04:35:53;;;;;;;11.27;6.17;;;;;;;;;;5103152;27;20216;-83
2022/12/20 04:38:20;;;;;;;9.97;6.60;;;;;;;;;;5111680;27;20202;-84
2022/12/20 04:40:48;;;;;;;10.73;6.43;;;;;;;;;;5108813;28;20920;-83
2022/12/20 04:43:15;;;;;;;12.00;8.07;;;;;;;;;;5110987;28;20203;-84
2022/12/20 04:45:43;;;;;;;13.97;9.50;;;;;;;;;;5106016;28;20208;-84
2022/12/20 04:48:11;;;;;;;11.47;7.63;;;;;;;;;;5076877;28;20200;-83
2022/12/20 04:50:39;;;;;;;10.73;7.97;;;;;;;;;;5102580;28;20208;-83
2022/12/20 04:55:51;;;;;;;10.90;7.47;;;;;;;;;;5111481;28;20237;-83
2022/12/20 04:58:18;;;;;;;14.13;8.70;;;;;;;;;;5110158;28;20207;-84
2022/12/20 05:00:45;;;;;;;14.90;8.30;;;;;;;;;;5110451;28;20207;-84
2022/12/20 05:03:13;;;;;;;14.03;7.70;;;;;;;;;;5110246;28;20211;-82
2022/12/20 05:05:41;;;;;;;9.90;6.57;;;;;;;;;;5103257;28;20207;-84
2022/12/20 05:08:08;;;;;;;11.10;7.43;;;;;;;;;;5110002;28;20217;-84
2022/12/20 05:10:35;;;;;;;13.50;8.20;;;;;;;;;;5108964;27;20196;-83
2022/12/20 05:13:02;;;;;;;10.70;7.73;;;;;;;;;;5111295;27;20191;-85
2022/12/20 05:15:28;;;;;;;10.20;7.13;;;;;;;;;;5111116;28;20235;-84
2022/12/20 05:17:58;;;;;;;8.07;6.47;;;;;;;;;;5107002;27;20571;-84
2022/12/20 05:20:26;;;;;;;10.53;7.67;;;;;;;;;;5120531;27;20574;-84
2022/12/20 05:28:23;;;;;;;10.00;5.43;;;;;;;;;;5105177;27;20219;-84
2022/12/20 05:30:50;;;;;;;7.10;4.80;;;;;;;;;;5107866;28;20212;-83
2022/12/20 05:33:28;;;;;;;7.37;5.30;;;;;;;;;;5111126;28;20207;-84
2022/12/20 05:35:57;;;;;;;11.30;5.63;;;;;;;;;;5111162;28;20203;-83
2022/12/20 05:38:24;;;;;;;6.70;4.87;;;;;;;;;;5111032;28;20282;-83
2022/12/20 05:40:52;;;;;;;8.10;4.77;;;;;;;;;;5110573;28;20226;-83
2022/12/20 05:43:20;;;;;;;6.23;4.43;;;;;;;;;;5092801;28;20203;-84
2022/12/20 05:45:47;;;;;;;8.70;5.50;;;;;;;;;;5110269;28;20206;-84
2022/12/20 05:48:14;;;;;;;7.53;5.03;;;;;;;;;;5110137;28;20264;-86
2022/12/20 05:50:42;;;;;;;8.27;5.40;;;;;;;;;;5111040;28;20211;-84
2022/12/20 05:53:11;;;;;;;8.07;5.33;;;;;;;;;;5107859;28;20601;-83
2022/12/20 05:55:39;;;;;;;13.77;6.23;;;;;;;;;;5110766;28;20299;-83
2022/12/20 05:58:06;;;;;;;12.63;6.00;;;;;;;;;;5098617;28;20833;-84
2022/12/20 06:00:33;;;;;;;6.20;4.53;;;;;;;;;;5105302;28;20234;-84
2022/12/20 06:03:00;;;;;;;10.00;5.80;;;;;;;;;;5104081;28;20537;-83
2022/12/20 06:05:26;;;;;;;9.07;5.63;;;;;;;;;;5090908;28;20280;-84
2022/12/20 06:07:53;;;;;;;9.37;5.97;;;;;;;;;;5110737;28;20755;-84
2022/12/20 06:10:21;;;;;;;8.63;5.73;;;;;;;;;;5114684;28;20617;-84
2022/12/20 06:12:48;;;;;;;8.03;5.73;;;;;;;;;;5115052;28;20203;-83
2022/12/20 06:15:15;;;;;;;9.60;6.30;;;;;;;;;;5114916;28;20242;-89
2022/12/20 06:17:42;;;;;;;7.87;6.27;;;;;;;;;;5113200;28;20631;-84
2022/12/20 06:20:11;;;;;;;10.30;7.00;;;;;;;;;;5114783;27;20207;-83
2022/12/20 06:22:37;;;;;;;5.97;5.30;;;;;;;;;;5106537;28;20203;-83
2022/12/20 06:25:06;;;;;;;11.53;8.20;;;;;;;;;;5113993;28;20228;-84
2022/12/20 06:27:34;;;;;;;10.27;7.50;;;;;;;;;;5113880;28;20205;-83
2022/12/20 06:30:01;;;;;;;12.03;8.70;;;;;;;;;;5114385;28;20784;-83
2022/12/20 06:32:27;;;;;;;12.53;8.13;;;;;;;;;;5107944;28;20207;-86
2022/12/20 06:34:54;;;;;;;16.33;10.13;;;;;;;;;;5101277;28;20219;-85
2022/12/20 06:37:21;;;;;;;18.70;12.13;;;;;;;;;;5106757;28;20283;-85
2022/12/20 06:39:48;;;;;;;20.73;12.40;;;;;;;;;;5110618;28;20207;-86
2022/12/20 06:42:14;;;;;;;18.10;10.97;;;;;;;;;;5102588;28;20208;-85
2022/12/20 06:44:43;;;;;;;12.53;8.63;;;;;;;;;;5103240;28;20212;-85
2022/12/20 06:47:10;;;;;;;7.07;5.43;;;;;;;;;;5104703;28;20203;-84
2022/12/20 06:49:37;;;;;;;9.00;7.00;;;;;;;;;;5106996;28;20228;-85
2022/12/20 06:52:04;;;;;;;9.70;6.27;;;;;;;;;;5107339;27;20211;-84
2022/12/20 06:54:31;;;;;;;8.97;5.60;;;;;;;;;;5101782;28;20686;-86
2022/12/20 06:56:57;;;;;;;7.60;4.53;;;;;;;;;;5109098;28;20608;-85
2022/12/20 06:59:24;;;;;;;8.27;5.73;;;;;;;;;;5106438;28;20205;-85
2022/12/20 07:01:52;;;;;;;6.97;4.47;;;;;;;;;;5104440;28;20270;-85
2022/12/20 07:04:20;;;;;;;8.17;5.60;;;;;;;;;;5104175;28;20204;-85
2022/12/20 07:06:47;;;;;;;8.87;4.83;;;;;;;;;;5103969;28;20703;-88
2022/12/20 07:09:13;;;;;;;11.20;7.20;;;;;;;;;;5103258;28;20220;-83
2022/12/20 07:11:42;;;;;;;13.77;8.43;;;;;;;;;;5097436;28;20205;-84
2022/12/20 07:14:09;;;;;;;12.17;7.73;;;;;;;;;;5103387;28;20230;-84
2022/12/20 07:16:35;;;;;;;8.53;5.60;;;;;;;;;;5102839;28;20202;-82
2022/12/20 07:19:04;;;;;;;9.27;6.37;;;;;;;;;;5102310;28;20683;-83
2022/12/20 07:21:31;;;;;;;9.20;5.50;;;;;;;;;;5104945;28;20223;-84
2022/12/20 07:23:58;;;;;;;11.53;6.63;;;;;;;;;;5101459;28;20207;-86
2022/12/20 07:26:25;;;;;;;10.20;7.33;;;;;;;;;;5098112;28;20211;-85
2022/12/20 07:28:51;;;;;;;10.23;7.17;;;;;;;;;;5103578;28;20686;-84
2022/12/20 07:31:18;;;;;;;8.20;5.97;;;;;;;;;;5105232;28;20200;-87
2022/12/20 07:33:45;;;;;;;8.27;6.07;;;;;;;;;;5104404;28;20674;-91
2022/12/20 07:36:14;;;;;;;6.50;5.90;;;;;;;;;;5099433;28;20192;-94
2022/12/20 07:38:41;;;;;;;8.70;5.57;;;;;;;;;;5101746;28;20679;-90
2022/12/20 07:41:08;;;;;;;9.63;6.80;;;;;;;;;;5103817;28;20204;-89
2022/12/20 07:43:35;;;;;;;6.90;4.87;;;;;;;;;;5100909;28;20205;-87
2022/12/20 07:46:04;;;;;;;9.67;5.60;;;;;;;;;;5096390;28;20204;-86
2022/12/20 07:48:31;;;;;;;9.93;6.00;;;;;;;;;;5095613;28;20602;-87
2022/12/20 07:51:01;;;;;;;7.37;5.67;;;;;;;;;;5097291;28;20227;-87
2022/12/20 07:53:30;;;;;;;12.47;8.10;;;;;;;;;;5114147;28;20690;-88
2022/12/20 07:55:59;;;;;;;11.60;6.60;;;;;;;;;;5113983;28;20199;-89
2022/12/20 07:58:26;;;;;;;14.47;8.93;;;;;;;;;;5113980;28;20265;-89
2022/12/20 08:00:53;;;;;;;7.20;6.23;;;;;;;;;;5100222;28;20204;-89
2022/12/20 08:03:21;;;;;;;5.73;4.47;;;;;;;;;;5101963;28;20698;-89
2022/12/20 08:05:55;;;;;;;4.87;4.03;;;;;;;;;;5099068;28;20203;-91
2022/12/20 08:08:22;;;;;;;9.10;4.83;;;;;;;;;;5114157;28;20204;-91
2022/12/20 08:10:50;;;;;;;4.50;4.00;;;;;;;;;;5100502;28;20223;-93
2022/12/20 08:13:18;;;;;;;6.13;3.77;;;;;;;;;;5099899;28;20216;-91
2022/12/20 08:15:44;;;;;;;5.70;3.57;;;;;;;;;;5113928;28;20203;-91
2022/12/20 08:18:11;;;;;;;6.13;4.60;;;;;;;;;;5103390;28;20569;-89
2022/12/20 08:20:38;;;;;;;4.77;3.80;;;;;;;;;;5111497;28;20207;-93
2022/12/20 08:23:05;;;;;;;9.33;6.97;;;;;;;;;;5114104;28;20211;-90
2022/12/20 08:25:32;;;;;;;15.70;9.93;;;;;;;;;;5113604;28;20200;-90
2022/12/20 08:28:02;;;;;;;5.00;4.20;;;;;;;;;;5102194;28;20201;-86
2022/12/20 08:30:29;;;;;;;7.27;5.43;;;;;;;;;;5102519;28;20227;-84
2022/12/20 08:32:56;;;;;;;8.10;5.63;;;;;;;;;;5104169;28;20195;-84
2022/12/20 08:35:23;;;;;;;6.57;4.37;;;;;;;;;;5102188;28;20578;-91
2022/12/20 08:37:51;;;;;;;5.00;4.50;;;;;;;;;;5099453;28;20204;-93
2022/12/20 08:40:18;;;;;;;6.53;5.70;;;;;;;;;;5096344;28;20223;-94
2022/12/20 08:42:46;;;;;;;6.07;4.97;;;;;;;;;;5089282;28;20295;-91
2022/12/20 08:45:14;;;;;;;7.30;5.50;;;;;;;;;;5096586;28;20191;-89
2022/12/20 08:47:41;;;;;;;6.37;5.50;;;;;;;;;;5112907;28;20205;-94
2022/12/20 08:50:08;;;;;;;6.10;5.03;;;;;;;;;;5113024;28;20219;-92
2022/12/20 08:52:35;;;;;;;6.47;4.73;;;;;;;;;;5113317;28;20233;-93
2022/12/20 08:55:02;;;;;;;11.23;5.07;;;;;;;;;;5113134;28;20286;-92
2022/12/20 08:57:29;;;;;;;5.23;4.73;;;;;;;;;;5112279;28;20211;-94
2022/12/20 08:59:56;;;;;;;6.33;4.03;;;;;;;;;;5099639;28;20241;-91
2022/12/20 09:02:24;;;;;;;6.30;5.63;;;;;;;;;;5100219;28;20208;-92
2022/12/20 09:04:51;;;;;;;5.50;4.97;;;;;;;;;;5112457;28;20692;-92
2022/12/20 09:07:18;;;;;;;5.67;5.17;;;;;;;;;;5113098;28;20199;-89
2022/12/20 09:09:46;;;;;;;4.47;4.07;;;;;;;;;;5098516;28;20223;-92
2022/12/20 09:12:13;;;;;;;4.67;3.57;;;;;;;;;;5112906;28;20264;-92
2022/12/20 09:14:40;;;;;;;3.87;3.43;;;;;;;;;;5112249;28;20249;-88
2022/12/20 09:17:07;;;;;;;3.57;3.27;;;;;;;;;;5112101;28;20256;-93
2022/12/20 09:19:35;;;;;;;4.43;3.10;;;;;;;;;;5104388;28;20223;-89
2022/12/20 09:22:03;;;;;;;3.73;3.37;;;;;;;;;;5107755;28;20210;-90
2022/12/20 09:24:30;;;;;;;5.53;3.50;;;;;;;;;;5103625;28;20212;-92
2022/12/20 09:26:57;;;;;;;2.40;2.10;;;;;;;;;;5107810;28;20203;-92
2022/12/20 09:29:23;;;;;;;3.33;2.70;;;;;;;;;;5112164;28;20199;-92
2022/12/20 09:31:50;;;;;;;3.00;2.70;;;;;;;;;;5113046;28;20260;-93
2022/12/20 09:34:17;;;;;;;3.53;2.07;;;;;;;;;;5113316;28;20211;-94
2022/12/20 09:36:45;;;;;;;2.23;2.00;;;;;;;;;;5111993;28;20624;-92
2022/12/20 09:39:12;;;;;;;3.57;2.20;;;;;;;;;;5106474;28;20208;-93
2022/12/20 09:41:40;;;;;;;2.93;2.43;;;;;;;;;;5094541;28;20277;-91
2022/12/20 09:44:14;;;;;;;3.80;3.43;;;;;;;;;;5107441;28;20261;-93
2022/12/20 09:46:41;;;;;;;5.83;4.03;;;;;;;;;;5103935;28;20202;-91
2022/12/20 09:49:12;;;;;;;4.40;2.97;;;;;;;;;;5106200;28;20257;-90
2022/12/20 09:52:01;;;;;;;3.00;1.90;;;;;;;;;;5116671;28;20227;-93
2022/12/20 09:54:33;;;;;;;2.90;2.50;;;;;;;;;;5099266;28;20683;-93
2022/12/20 09:57:06;;;;;;;2.93;2.43;;;;;;;;;;5112512;28;20203;-94
2022/12/20 09:59:35;;;;;;;3.77;2.77;;;;;;;;;;5104765;28;20201;-89
2022/12/20 10:02:01;;;;;;;2.67;2.47;;;;;;;;;;5108959;28;20211;-91
2022/12/20 10:04:29;;;;;;;3.40;2.50;;;;;;;;;;5108096;28;20586;-93
2022/12/20 10:07:16;;;;;;;4.47;3.00;;;;;;;;;;5099458;28;20200;-94
2022/12/20 10:09:59;;;;;;;3.43;2.83;;;;;;;;;;5103160;28;20203;-93
2022/12/20 10:12:33;;;;;;;2.57;2.37;;;;;;;;;;5101934;28;20203;-94
2022/12/20 10:15:14;;;;;;;2.43;2.23;;;;;;;;;;5103574;28;20230;-90
2022/12/20 10:17:50;;;;;;;4.23;2.60;;;;;;;;;;5105411;28;20199;-86
2022/12/20 10:23:24;;;;;;;3.13;2.50;;;;;;;;;;5103583;28;20710;-86
2022/12/20 10:25:52;;;;;;;3.77;2.40;;;;;;;;;;5101461;28;20260;-86
2022/12/20 10:28:20;;;;;;;3.13;2.83;;;;;;;;;;5109590;28;20268;-87
2022/12/20 10:30:47;;;;;;;3.37;2.80;;;;;;;;;;5099754;28;20771;-87
2022/12/20 10:33:18;;;;;;;3.00;2.23;;;;;;;;;;5105237;28;20200;-87
2022/12/20 10:35:45;;;;;;;3.00;2.70;;;;;;;;;;5105954;28;20207;-87
2022/12/20 10:38:16;;;;;;;8.70;5.87;;;;;;;;;;5106847;28;20204;-86
2022/12/20 10:40:46;;;;;;;7.13;5.13;;;;;;;;;;5106443;28;20311;-87
2022/12/20 10:43:16;;;;;;;7.23;4.50;;;;;;;;;;5106440;28;20204;-87
2022/12/20 10:45:43;;;;;;;4.33;3.33;;;;;;;;;;5097901;28;20211;-86
2022/12/20 10:48:27;;;;;;;12.13;8.00;;;;;;;;;;5114812;28;20597;-86
2022/12/20 10:50:57;;;;;;;2.57;2.37;;;;;;;;;;5103793;28;20258;-87
2022/12/20 10:53:26;;;;;;;3.33;2.53;;;;;;;;;;5103327;28;20201;-86
2022/12/20 10:56:12;;;;;;;3.93;2.30;;;;;;;;;;5105250;28;20242;-87
2022/12/20 10:58:39;;;;;;;6.67;2.40;;;;;;;;;;5106557;28;20200;-86
2022/12/20 11:01:12;;;;;;;4.50;2.50;;;;;;;;;;5099037;28;20200;-86
2022/12/20 11:03:50;;;;;;;3.20;2.47;;;;;;;;;;5102867;28;20209;-86
2022/12/20 11:06:19;;;;;;;5.60;2.40;;;;;;;;;;5104295;28;20253;-86
2022/12/20 11:08:49;;;;;;;3.53;2.70;;;;;;;;;;5098597;28;20200;-87
2022/12/20 11:11:21;;;;;;;4.50;3.50;;;;;;;;;;5105495;28;20228;-87
2022/12/20 11:13:49;;;;;;;2.90;2.20;;;;;;;;;;5101628;28;20227;-86
2022/12/20 11:16:29;;;;;;;3.47;2.37;;;;;;;;;;5103482;28;20200;-85
2022/12/20 11:19:04;;;;;;;3.13;2.83;;;;;;;;;;5100069;28;20198;-89
2022/12/20 11:21:36;;;;;;;2.50;2.07;;;;;;;;;;5106153;28;20199;-86
2022/12/20 11:24:11;;;;;;;4.23;2.83;;;;;;;;;;5100489;28;20261;-86
2022/12/20 11:26:58;;;;;;;4.07;2.90;;;;;;;;;;5102337;28;20669;-86
2022/12/20 11:29:45;;;;;;;14.87;7.57;;;;;;;;;;5100716;28;20633;-86
2022/12/20 11:32:22;;;;;;;7.53;4.33;;;;;;;;;;5106732;28;20276;-86
2022/12/20 11:34:54;;;;;;;10.17;5.40;;;;;;;;;;5108096;28;20273;-86
2022/12/20 11:37:23;;;;;;;8.03;5.27;;;;;;;;;;5101512;28;20201;-87
2022/12/20 11:40:04;;;;;;;18.07;9.30;;;;;;;;;;5103643;28;20256;-88
2022/12/20 11:42:41;;;;;;;43.33;24.27;;;;;;;;;;5103320;28;20204;-85
2022/12/20 11:45:13;;;;;;;25.27;13.93;;;;;;;;;;5105886;28;20237;-86
2022/12/20 11:48:02;;;;;;;4.73;3.43;;;;;;;;;;5094327;28;20200;-86
2022/12/20 11:50:40;;;;;;;44.00;20.93;;;;;;;;;;5101130;28;20234;-86
2022/12/20 11:53:13;;;;;;;21.47;12.27;;;;;;;;;;5098632;28;20254;-87
2022/12/20 11:55:41;;;;;;;24.03;13.90;;;;;;;;;;5102470;28;20723;-86
2022/12/20 11:58:16;;;;;;;12.83;8.70;;;;;;;;;;5096296;28;20223;-86
2022/12/20 12:00:49;;;;;;;5.60;3.77;;;;;;;;;;5097976;28;20208;-88
2022/12/20 12:03:19;;;;;;;11.50;8.20;;;;;;;;;;5097487;28;20200;-86
2022/12/20 12:05:49;;;;;;;13.20;7.63;;;;;;;;;;5100028;28;20201;-86
2022/12/20 12:08:18;;;;;;;31.90;16.30;;;;;;;;;;5101687;28;20273;-86
2022/12/20 12:10:58;;;;;;;54.63;33.17;;;;;;;;;;5108876;27;20310;-87
2022/12/20 12:13:28;;;;;;;11.47;7.53;;;;;;;;;;5103344;28;20211;-86
2022/12/20 12:15:58;;;;;;;10.40;7.70;;;;;;;;;;5098229;28;20261;-86
2022/12/20 12:18:30;;;;;;;11.63;8.00;;;;;;;;;;5105767;28;20754;-85
2022/12/20 12:21:03;;;;;;;10.53;7.03;;;;;;;;;;5101068;28;20199;-85
2022/12/20 12:23:34;;;;;;;9.30;5.67;;;;;;;;;;5098678;28;20203;-86
2022/12/20 12:26:05;;;;;;;20.40;10.43;;;;;;;;;;5097839;28;20761;-85
2022/12/20 12:28:33;;;;;;;7.33;5.10;;;;;;;;;;5097432;28;20199;-86
2022/12/20 12:31:04;;;;;;;10.00;6.83;;;;;;;;;;5101489;28;20216;-85
2022/12/20 12:33:35;;;;;;;12.50;7.73;;;;;;;;;;5100984;28;20626;-85
2022/12/20 12:36:16;;;;;;;10.93;6.60;;;;;;;;;;5105882;28;20264;-86
2022/12/20 12:38:56;;;;;;;9.40;6.60;;;;;;;;;;5104054;28;20206;-86
2022/12/20 12:42:00;;;;;;;11.20;6.13;;;;;;;;;;5095452;28;20199;-86
2022/12/20 12:44:41;;;;;;;8.83;6.47;;;;;;;;;;5099503;28;20201;-86
2022/12/20 12:47:14;;;;;;;10.83;7.63;;;;;;;;;;5105213;28;20211;-91
2022/12/20 12:49:41;;;;;;;6.67;5.90;;;;;;;;;;5104973;28;20249;-86
2022/12/20 12:52:27;;;;;;;15.83;9.37;;;;;;;;;;5109155;28;20231;-85
2022/12/20 12:54:54;;;;;;;9.50;6.70;;;;;;;;;;5100796;28;20750;-86
2022/12/20 12:57:21;;;;;;;12.40;10.17;;;;;;;;;;5109657;28;20195;-86
2022/12/20 12:59:50;;;;;;;15.47;10.67;;;;;;;;;;5103618;28;20783;-87
2022/12/20 13:02:35;;;;;;;9.10;6.03;;;;;;;;;;5105956;28;20196;-86
2022/12/20 13:05:34;;;;;;;10.23;6.40;;;;;;;;;;5103751;28;20647;-86
2022/12/20 13:08:01;;;;;;;15.07;8.97;;;;;;;;;;5110368;28;20260;-90
2022/12/20 13:10:58;;;;;;;11.63;6.63;;;;;;;;;;5110557;28;20219;-84
2022/12/20 13:13:25;;;;;;;22.17;12.30;;;;;;;;;;5090711;28;20295;-85
2022/12/20 13:16:12;;;;;;;16.10;9.03;;;;;;;;;;5093097;28;20729;-86
2022/12/20 13:18:56;;;;;;;21.53;9.90;;;;;;;;;;5110890;28;20272;-85
2022/12/20 13:21:41;;;;;;;20.80;12.03;;;;;;;;;;5110680;28;20567;-86
2022/12/20 13:24:32;;;;;;;16.00;8.83;;;;;;;;;;5110719;28;20653;-87
2022/12/20 13:27:00;;;;;;;20.67;11.40;;;;;;;;;;5105575;28;20195;-85
2022/12/20 13:29:28;;;;;;;17.37;11.67;;;;;;;;;;5111212;28;20199;-86
2022/12/20 13:31:56;;;;;;;20.20;12.67;;;;;;;;;;5111439;28;20223;-85
2022/12/20 13:34:53;;;;;;;14.40;9.97;;;;;;;;;;5110917;28;20195;-87
2022/12/20 13:37:28;;;;;;;27.10;12.47;;;;;;;;;;5098813;28;20231;-86
2022/12/20 13:39:55;;;;;;;26.37;12.30;;;;;;;;;;5110837;28;20206;-86
2022/12/20 13:42:37;;;;;;;35.23;16.80;;;;;;;;;;5111465;28;20670;-87
2022/12/20 13:45:05;;;;;;;42.63;16.47;;;;;;;;;;5106698;28;20666;-87
2022/12/20 13:47:39;;;;;;;28.60;13.57;;;;;;;;;;5102944;28;20203;-87
2022/12/20 13:50:31;;;;;;;32.70;13.80;;;;;;;;;;5111471;28;20282;-93
2022/12/20 13:52:59;;;;;;;44.13;17.77;;;;;;;;;;5102987;27;20215;-85
2022/12/20 13:55:32;;;;;;;51.57;19.93;;;;;;;;;;5111824;28;20195;-88
2022/12/20 13:58:05;;;;;;;52.03;28.10;;;;;;;;;;5114173;28;20264;-85
2022/12/20 14:00:32;;;;;;;74.37;45.47;;;;;;;;;;5102380;28;20286;-84
2022/12/20 14:03:01;;;;;;;53.07;30.17;;;;;;;;;;5108324;28;20202;-87
2022/12/20 14:05:32;;;;;;;74.53;42.87;;;;;;;;;;5104623;27;20357;-83
2022/12/20 14:08:00;;;;;;;35.27;23.70;;;;;;;;;;5116020;28;20200;-82
2022/12/20 14:10:29;;;;;;;78.70;47.33;;;;;;;;;;5104825;28;20632;-84
2022/12/20 14:12:56;;;;;;;34.33;20.67;;;;;;;;;;5104005;28;20227;-84
2022/12/20 14:15:26;;;;;;;34.00;21.83;;;;;;;;;;5096451;28;20766;-84
2022/12/20 14:17:53;;;;;;;7.90;6.60;;;;;;;;;;5102500;28;20261;-86
2022/12/20 14:20:24;;;;;;;11.27;9.03;;;;;;;;;;5102768;28;20677;-84
2022/12/20 14:22:55;;;;;;;9.57;6.53;;;;;;;;;;5110334;28;20677;-84
2022/12/20 14:25:29;;;;;;;17.30;12.13;;;;;;;;;;5110485;28;20203;-84
2022/12/20 14:27:56;;;;;;;24.03;17.93;;;;;;;;;;5110594;28;20619;-88
2022/12/20 14:30:42;;;;;;;26.17;20.83;;;;;;;;;;5112723;28;20244;-85
2022/12/20 14:33:19;;;;;;;28.27;21.17;;;;;;;;;;5113591;28;20288;-84
2022/12/20 14:35:51;;;;;;;24.90;20.50;;;;;;;;;;5114105;28;20755;-84
2022/12/20 14:38:22;;;;;;;19.83;14.67;;;;;;;;;;5113878;27;20299;-82
2022/12/20 14:40:49;;;;;;;47.03;32.87;;;;;;;;;;5114092;28;20199;-84
2022/12/20 14:43:16;;;;;;;56.07;45.97;;;;;;;;;;5113884;28;20727;-84
2022/12/20 14:45:43;;;;;;;47.77;37.60;;;;;;;;;;5113912;28;22728;-84
2022/12/20 14:48:17;;;;;;;43.73;33.57;;;;;;;;;;5114287;28;20283;-84
2022/12/20 14:50:56;;;;;;;40.87;30.37;;;;;;;;;;5114065;28;20199;-84
2022/12/20 14:53:26;;;;;;;36.57;25.70;;;;;;;;;;5100276;28;20728;-84
2022/12/20 14:55:53;;;;;;;11.03;8.10;;;;;;;;;;5113947;28;20211;-84
2022/12/20 14:58:27;;;;;;;3.27;3.03;;;;;;;;;;5106547;28;20686;-84
2022/12/20 15:00:59;;;;;;;4.13;2.50;;;;;;;;;;5109145;28;20203;-84
2022/12/20 15:03:26;;;;;;;4.57;2.40;;;;;;;;;;5113741;28;20195;-84
2022/12/20 15:05:55;;;;;;;2.80;2.43;;;;;;;;;;5113979;28;20199;-85